Auburn Municipal Airport

KAUN · Californie, États-Unis

METAR anciennes KAUN · Auburn Municipal Airport

Tu vois ci-dessous les METAR des derniers jours. Sélectionne une année pour parcourir les METAR plus anciens, à partir de l'année 2007.

20 juin 2024

Temps Code Temps Temp. Vue Base cloud Vent METAR/SPECI
04:55
V
17 °C 10 mi - 090° 090° 7 kt METAR KAUN 201155Z AUTO 09007KT 10SM CLR 17/04 A2983 RMK A01
04:35
V
17 °C 10 mi - 080° 080° 6 kt METAR KAUN 201135Z AUTO 08006KT 10SM CLR 17/04 A2984 RMK A01
04:15
V
17 °C 10 mi - 080° 080° 4 kt METAR KAUN 201115Z AUTO 08004KT 10SM CLR 17/04 A2984 RMK A01
03:55
V
17 °C 10 mi - 360° 360° 0 kt METAR KAUN 201055Z AUTO 00000KT 10SM CLR 17/04 A2984 RMK A01
03:35
V
18 °C 10 mi - 080° 080° 7 kt METAR KAUN 201035Z AUTO 08007KT 10SM CLR 18/04 A2984 RMK A01
03:15
V
18 °C 10 mi - 090° 090° 6 kt METAR KAUN 201015Z AUTO 09006KT 10SM CLR 18/04 A2984 RMK A01
02:55
V
18 °C 10 mi - 090° 090° 6 kt METAR KAUN 200955Z AUTO 09006KT 10SM CLR 18/04 A2985 RMK A01
02:35
V
17 °C 10 mi - 090° 090° 6 kt METAR KAUN 200935Z AUTO 09006KT 10SM CLR 17/05 A2985 RMK A01
02:15
V
18 °C 10 mi - 080° 080° 5 kt METAR KAUN 200915Z AUTO 08005KT 10SM CLR 18/05 A2986 RMK A01
01:55
V
18 °C 10 mi - 100° 100° 6 kt METAR KAUN 200855Z AUTO 10006KT 10SM CLR 18/05 A2986 RMK A01
01:35
V
19 °C 10 mi - 080° 080° 5 kt METAR KAUN 200835Z AUTO 08005KT 10SM CLR 19/05 A2986 RMK A01
01:15
V
19 °C 10 mi - 090° 090° 7 kt METAR KAUN 200815Z AUTO 09007KT 10SM CLR 19/05 A2987 RMK A01
00:55
V
19 °C 10 mi - 090° 090° 6 kt METAR KAUN 200755Z AUTO 09006KT 10SM CLR 19/05 A2987 RMK A01
00:35
V
19 °C 10 mi - 080° 080° 5 kt METAR KAUN 200735Z AUTO 08005KT 10SM CLR 19/05 A2987 RMK A01
00:15
V
19 °C 10 mi - 080° 080° 4 kt METAR KAUN 200715Z AUTO 08004KT 10SM CLR 19/05 A2987 RMK A01

19 juin 2024

Temps Code Temps Temp. Vue Base cloud Vent METAR/SPECI
23:55
V
19 °C 10 mi - 100° 100° 6 kt METAR KAUN 200655Z AUTO 10006KT 10SM CLR 19/04 A2987 RMK A01
23:35
V
19 °C 10 mi - 090° 090° 6 kt METAR KAUN 200635Z AUTO 09006KT 10SM CLR 19/04 A2988 RMK A01
23:15
V
19 °C 10 mi - 100° 100° 6 kt METAR KAUN 200615Z AUTO 10006KT 10SM CLR 19/05 A2988 RMK A01
22:55
V
19 °C 10 mi - 100° 100° 5 kt METAR KAUN 200555Z AUTO 10005KT 10SM CLR 19/04 A2988 RMK A01
22:35
V
19 °C 10 mi - 100° 100° 4 kt METAR KAUN 200535Z AUTO 10004KT 10SM CLR 19/04 A2988 RMK A01
22:15
V
20 °C 10 mi - 110° 110° 3 kt METAR KAUN 200515Z AUTO 11003KT 10SM CLR 20/04 A2988 RMK A01
21:55
V
19 °C 10 mi - 360° 360° 0 kt METAR KAUN 200455Z AUTO 00000KT 10SM CLR 19/04 A2987 RMK A01
21:35
V
20 °C 10 mi - 360° 360° 0 kt METAR KAUN 200435Z AUTO 00000KT 10SM CLR 20/03 A2987 RMK A01
21:15
V
19 °C 10 mi - 360° 360° 0 kt METAR KAUN 200415Z AUTO 00000KT 10SM CLR 19/02 A2986 RMK A01
20:55
V
19 °C 10 mi - 360° 360° 0 kt METAR KAUN 200355Z AUTO 00000KT 10SM CLR 19/02 A2985 RMK A01
20:35
V
21 °C 10 mi - 360° 360° 0 kt METAR KAUN 200335Z AUTO 00000KT 10SM CLR 21/02 A2985 RMK A01
20:15
V
24 °C 10 mi - 280° 280° 4 kt METAR KAUN 200315Z AUTO 28004KT 10SM CLR 24/01 A2985 RMK A01
19:55
V
25 °C 10 mi - 260° 260° 5 kt METAR KAUN 200255Z AUTO 26005KT 10SM CLR 25/00 A2984 RMK A01
19:35
V
26 °C 10 mi - 260° 260° 5 kt METAR KAUN 200235Z AUTO 26005KT 10SM CLR 26/00 A2984 RMK A01
19:15
V
27 °C 10 mi - 250° 250° 5 kt METAR KAUN 200215Z AUTO 25005KT 10SM CLR 27/00 A2983 RMK A01
18:55
V
27 °C 10 mi - 280° 280° 6 kt METAR KAUN 200155Z AUTO 28006KT 10SM CLR 27/01 A2983 RMK A01
18:35
V
28 °C 10 mi - 260° 260° 7 kt METAR KAUN 200135Z AUTO 26007KT 10SM CLR 28/01 A2983 RMK A01
18:15
V
28 °C 10 mi - 210° 210° 6 kt METAR KAUN 200115Z AUTO 21006KT 10SM CLR 28/01 A2983 RMK A01
17:55
V
28 °C 10 mi - 230° 230° 6 kt METAR KAUN 200055Z AUTO 23006KT 10SM CLR 28/01 A2984 RMK A01
17:35
V
29 °C 9 mi - Var Var 6 kt METAR KAUN 200035Z AUTO VRB06KT 9SM CLR 29/01 A2984 RMK A01
17:15
V
28 °C 9 mi - 220° 220° 4 kt METAR KAUN 200015Z AUTO 22004KT 9SM CLR 28/01 A2984 RMK A01
16:55
V
28 °C 9 mi - 230° 230° 4 - 11 kt METAR KAUN 192355Z AUTO 23004G11KT 9SM CLR 28/00 A2985 RMK A01
16:35
V
29 °C 8 mi - Var Var 5 - 13 kt METAR KAUN 192335Z AUTO VRB05G13KT 8SM CLR 29/01 A2985 RMK A01
16:15
V
28 °C 10 mi - Var Var 4 kt METAR KAUN 192315Z AUTO VRB04KT 10SM CLR 28/01 A2985 RMK A01
15:55
V
28 °C 9 mi - 360° 360° 0 kt METAR KAUN 192255Z AUTO 00000KT 9SM CLR 28/00 A2985 RMK A01
15:35
V
28 °C 9 mi - 240° 240° 6 kt METAR KAUN 192235Z AUTO 24006KT 9SM CLR 28/01 A2986 RMK A01
15:15
V
28 °C 9 mi - Var Var 5 kt METAR KAUN 192215Z AUTO VRB05KT 9SM CLR 28/01 A2987 RMK A01
14:55
V
28 °C 10 mi - 230° 230° 8 kt METAR KAUN 192155Z AUTO 23008KT 10SM CLR 28/01 A2987 RMK A01
14:35
V
27 °C 9 mi - Var Var 3 kt METAR KAUN 192135Z AUTO VRB03KT 9SM CLR 27/02 A2987 RMK A01
14:15
V
27 °C 9 mi - 200° 200° 5 kt METAR KAUN 192115Z AUTO 20005KT 9SM CLR 27/01 A2987 RMK A01
13:55
V
28 °C 8 mi - 240° 240° 8 kt METAR KAUN 192055Z AUTO 24008KT 8SM CLR 28/02 A2988 RMK A01
13:35
V
27 °C 10 mi - 250° 250° 8 kt METAR KAUN 192035Z AUTO 25008KT 220V280 10SM CLR 27/03 A2988 RMK A01
13:15
V
27 °C 10 mi - 250° 250° 6 - 11 kt METAR KAUN 192015Z AUTO 25006G11KT 10SM CLR 27/03 A2989 RMK A01
12:55
V
26 °C 9 mi - 280° 280° 8 kt METAR KAUN 191955Z AUTO 28008KT 9SM CLR 26/04 A2989 RMK A01
12:35
V
26 °C 9 mi - Var Var 6 kt METAR KAUN 191935Z AUTO VRB06KT 9SM CLR 26/04 A2989 RMK A01
12:15
V
26 °C 10 mi - 260° 260° 7 kt METAR KAUN 191915Z AUTO 26007KT 250V310 10SM CLR 26/05 A2989 RMK A01
11:55
V
25 °C 10 mi - 260° 260° 7 kt METAR KAUN 191855Z AUTO 26007KT 10SM CLR 25/05 A2989 RMK A01
11:35
V
25 °C 10 mi - Var Var 4 kt METAR KAUN 191835Z AUTO VRB04KT 10SM CLR 25/05 A2988 RMK A01
11:15
V
25 °C 10 mi - Var Var 7 kt METAR KAUN 191815Z AUTO VRB07KT 10SM CLR 25/06 A2988 RMK A01
10:55
V
25 °C 10 mi - 260° 260° 7 kt METAR KAUN 191755Z AUTO 26007KT 10SM CLR 25/06 A2988 RMK A01
10:35
V
24 °C 10 mi - 250° 250° 6 kt METAR KAUN 191735Z AUTO 25006KT 10SM CLR 24/06 A2988 RMK A01
10:15
V
23 °C 10 mi - Var Var 4 kt METAR KAUN 191715Z AUTO VRB04KT 10SM CLR 23/06 A2988 RMK A01
09:55
V
23 °C 10 mi - Var Var 3 kt METAR KAUN 191655Z AUTO VRB03KT 10SM CLR 23/05 A2988 RMK A01
09:35
V
23 °C 10 mi - Var Var 5 kt METAR KAUN 191635Z AUTO VRB05KT 10SM CLR 23/05 A2987 RMK A01
09:15
V
23 °C 10 mi - 360° 360° 0 kt METAR KAUN 191615Z AUTO 00000KT 10SM CLR 23/05 A2987 RMK A01
08:55
V
22 °C 10 mi - 360° 360° 0 kt METAR KAUN 191555Z AUTO 00000KT 10SM CLR 22/05 A2987 RMK A01
08:35
V
21 °C 10 mi - 290° 290° 3 kt METAR KAUN 191535Z AUTO 29003KT 10SM CLR 21/06 A2987 RMK A01
08:15
V
21 °C 10 mi - 360° 360° 0 kt METAR KAUN 191515Z AUTO 00000KT 10SM CLR 21/03 A2986 RMK A01
07:55
V
20 °C 10 mi - 360° 360° 0 kt METAR KAUN 191455Z AUTO 00000KT 10SM CLR 20/02 A2985 RMK A01
07:35
V
19 °C 10 mi - 080° 080° 4 kt METAR KAUN 191435Z AUTO 08004KT 10SM CLR 19/02 A2985 RMK A01
07:15
V
18 °C 10 mi - 080° 080° 6 kt METAR KAUN 191415Z AUTO 08006KT 10SM CLR 18/01 A2985 RMK A01
06:55
V
17 °C 10 mi - 090° 090° 8 kt METAR KAUN 191355Z AUTO 09008KT 10SM CLR 17/01 A2984 RMK A01
06:35
V
17 °C 10 mi - 080° 080° 8 kt METAR KAUN 191335Z AUTO 08008KT 10SM CLR 17/00 A2984 RMK A01
06:15
V
16 °C 10 mi - 090° 090° 9 kt METAR KAUN 191315Z AUTO 09009KT 10SM CLR 16/00 A2984 RMK A01
05:55
V
16 °C 10 mi - 090° 090° 8 kt METAR KAUN 191255Z AUTO 09008KT 10SM CLR 16/00 A2983 RMK A01
05:35
V
16 °C 10 mi - 090° 090° 9 kt METAR KAUN 191235Z AUTO 09009KT 10SM CLR 16/00 A2983 RMK A01
05:15
V
16 °C 10 mi - 080° 080° 8 kt METAR KAUN 191215Z AUTO 08008KT 10SM CLR 16/00 A2983 RMK A01
04:55
V
16 °C 10 mi - 090° 090° 9 kt METAR KAUN 191155Z AUTO 09009KT 10SM CLR 16/01 A2983 RMK A01
04:35
V
16 °C 10 mi - 090° 090° 9 kt METAR KAUN 191135Z AUTO 09009KT 10SM CLR 16/01 A2982 RMK A01
04:15
V
17 °C 10 mi - 080° 080° 9 kt METAR KAUN 191115Z AUTO 08009KT 10SM CLR 17/01 A2982 RMK A01
03:55
V
17 °C 10 mi - 090° 090° 10 kt METAR KAUN 191055Z AUTO 09010KT 10SM CLR 17/01 A2982 RMK A01
03:35
V
17 °C 10 mi - 090° 090° 11 kt METAR KAUN 191035Z AUTO 09011KT 10SM CLR 17/01 A2982 RMK A01
03:15
V
17 °C 10 mi - 090° 090° 9 kt METAR KAUN 191015Z AUTO 09009KT 10SM CLR 17/01 A2983 RMK A01
02:55
V
17 °C 10 mi - 090° 090° 8 kt METAR KAUN 190955Z AUTO 09008KT 10SM CLR 17/01 A2983 RMK A01
02:35
V
17 °C 10 mi - 090° 090° 9 kt METAR KAUN 190935Z AUTO 09009KT 10SM CLR 17/01 A2983 RMK A01
02:15
V
17 °C 10 mi - 090° 090° 8 kt METAR KAUN 190915Z AUTO 09008KT 10SM CLR 17/01 A2983 RMK A01
01:55
V
17 °C 10 mi - 090° 090° 9 kt METAR KAUN 190855Z AUTO 09009KT 10SM CLR 17/01 A2983 RMK A01
01:35
V
17 °C 10 mi - 090° 090° 8 kt METAR KAUN 190835Z AUTO 09008KT 10SM CLR 17/02 A2984 RMK A01
01:15
V
17 °C 10 mi - 090° 090° 7 kt METAR KAUN 190815Z AUTO 09007KT 10SM CLR 17/02 A2984 RMK A01
00:55
V
17 °C 10 mi - 090° 090° 8 kt METAR KAUN 190755Z AUTO 09008KT 10SM CLR 17/02 A2984 RMK A01
00:35
V
18 °C 10 mi - 080° 080° 7 kt METAR KAUN 190735Z AUTO 08007KT 10SM CLR 18/02 A2985 RMK A01
00:15
V
18 °C 10 mi - 080° 080° 6 kt METAR KAUN 190715Z AUTO 08006KT 10SM CLR 18/02 A2985 RMK A01

18 juin 2024

Temps Code Temps Temp. Vue Base cloud Vent METAR/SPECI
23:55
V
18 °C 10 mi - 090° 090° 7 kt METAR KAUN 190655Z AUTO 09007KT 10SM CLR 18/02 A2985 RMK A01
23:35
V
18 °C 10 mi - 090° 090° 6 kt METAR KAUN 190635Z AUTO 09006KT 10SM CLR 18/02 A2985 RMK A01
23:15
V
16 °C 10 mi - 360° 360° 0 kt METAR KAUN 190615Z AUTO 00000KT 10SM CLR 16/02 A2985 RMK A01
22:55
V
17 °C 10 mi - 360° 360° 0 kt METAR KAUN 190555Z AUTO 00000KT 10SM CLR 17/02 A2984 RMK A01
22:35
V
17 °C 10 mi - 360° 360° 0 kt METAR KAUN 190535Z AUTO 00000KT 10SM CLR 17/00 A2984 RMK A01
22:15
V
18 °C 10 mi - 360° 360° 0 kt METAR KAUN 190515Z AUTO 00000KT 10SM CLR 18/M01 A2983 RMK A01
21:55
V
18 °C 10 mi - 360° 360° 0 kt METAR KAUN 190455Z AUTO 00000KT 10SM CLR 18/M01 A2983 RMK A01
21:35
V
17 °C 10 mi - 360° 360° 0 kt METAR KAUN 190435Z AUTO 00000KT 10SM CLR 17/M01 A2983 RMK A01
21:15
V
19 °C 10 mi - 360° 360° 0 kt METAR KAUN 190415Z AUTO 00000KT 10SM CLR 19/M00 A2983 RMK A01
20:55
V
19 °C 10 mi - 360° 360° 0 kt METAR KAUN 190355Z AUTO 00000KT 10SM CLR 19/M00 A2983 RMK A01
20:35
V
20 °C 10 mi - 360° 360° 0 kt METAR KAUN 190335Z AUTO 00000KT 10SM CLR 20/M02 A2982 RMK A01
20:15
V
21 °C 10 mi - 360° 360° 0 kt METAR KAUN 190315Z AUTO 00000KT 10SM CLR 21/00 A2983 RMK A01
19:55
V
24 °C 10 mi - 360° 360° 0 kt METAR KAUN 190255Z AUTO 00000KT 10SM CLR 24/M02 A2983 RMK A01
19:35
V
24 °C 10 mi - 270° 270° 5 kt METAR KAUN 190235Z AUTO 27005KT 10SM CLR 24/M02 A2982 RMK A01
19:15
V
25 °C 10 mi - 260° 260° 4 kt METAR KAUN 190215Z AUTO 26004KT 10SM CLR 25/M03 A2982 RMK A01
18:55
V
26 °C 10 mi - 260° 260° 4 kt METAR KAUN 190155Z AUTO 26004KT 10SM CLR 26/M02 A2982 RMK A01
18:35
V
27 °C 10 mi - Var Var 5 kt METAR KAUN 190135Z AUTO VRB05KT 10SM CLR 27/M02 A2981 RMK A01
18:15
V
27 °C 10 mi - Var Var 6 kt METAR KAUN 190115Z AUTO VRB06KT 10SM CLR 27/M02 A2981 RMK A01
17:35
V
27 °C 10 mi - Var Var 4 - 11 kt METAR KAUN 190035Z AUTO VRB04G11KT 10SM CLR 27/M02 A2981 RMK A01
17:15
V
28 °C 8 mi - 260° 260° 7 kt METAR KAUN 190015Z AUTO 26007KT 8SM CLR 28/M01 A2982 RMK A01
16:55
V
28 °C 10 mi - 320° 320° 7 kt METAR KAUN 182355Z AUTO 32007KT 10SM CLR 28/M02 A2982 RMK A01
16:35
V
27 °C 10 mi - Var Var 4 kt METAR KAUN 182335Z AUTO VRB04KT 10SM CLR 27/M04 A2982 RMK A01
16:15
V
28 °C 10 mi - 170° 170° 6 kt METAR KAUN 182315Z AUTO 17006KT 10SM CLR 28/M03 A2983 RMK A01
15:55
V
28 °C 9 mi - 240° 240° 9 kt METAR KAUN 182255Z AUTO 24009KT 9SM CLR 28/M03 A2983 RMK A01
15:35
V
28 °C 10 mi - Var Var 6 - 11 kt METAR KAUN 182235Z AUTO VRB06G11KT 10SM CLR 28/M03 A2983 RMK A01
15:15
V
27 °C 10 mi - Var Var 4 - 10 kt METAR KAUN 182215Z AUTO VRB04G10KT 10SM CLR 27/M05 A2984 RMK A01
14:55
V
27 °C 10 mi - 240° 240° 8 kt METAR KAUN 182155Z AUTO 24008KT 200V280 10SM CLR 27/M04 A2983 RMK A01
14:35
V
28 °C 9 mi - Var Var 5 kt METAR KAUN 182135Z AUTO VRB05KT 9SM CLR 28/M06 A2983 RMK A01
14:15
V
27 °C 10 mi - 260° 260° 5 - 10 kt METAR KAUN 182115Z AUTO 26005G10KT 10SM CLR 27/M05 A2984 RMK A01
13:55
V
27 °C 10 mi - Var Var 6 - 11 kt METAR KAUN 182055Z AUTO VRB06G11KT 10SM CLR 27/M03 A2984 RMK A01
13:35
V
27 °C 9 mi - Var Var 7 - 12 kt METAR KAUN 182035Z AUTO VRB07G12KT 9SM CLR 27/M02 A2984 RMK A01
13:15
V
26 °C 10 mi - 270° 270° 7 kt METAR KAUN 182015Z AUTO 27007KT 10SM CLR 26/M03 A2984 RMK A01
12:55
V
26 °C 9 mi - 260° 260° 7 kt METAR KAUN 181955Z AUTO 26007KT 220V290 9SM CLR 26/M02 A2984 RMK A01
12:35
V
26 °C 9 mi - 320° 320° 5 kt METAR KAUN 181935Z AUTO 32005KT 9SM CLR 26/M01 A2984 RMK A01
12:15
V
26 °C 9 mi - Var Var 4 kt METAR KAUN 181915Z AUTO VRB04KT 9SM CLR 26/M01 A2985 RMK A01
11:55
V
25 °C 10 mi - Var Var 4 kt METAR KAUN 181855Z AUTO VRB04KT 10SM CLR 25/M01 A2985 RMK A01
11:35
V
25 °C 8 mi - Var Var 4 kt METAR KAUN 181835Z AUTO VRB04KT 8SM CLR 25/M02 A2985 RMK A01
11:15
V
24 °C 10 mi - 170° 170° 4 kt METAR KAUN 181815Z AUTO 17004KT 10SM CLR 24/M00 A2985 RMK A01
10:55
V
24 °C 10 mi - Var Var 4 kt METAR KAUN 181755Z AUTO VRB04KT 10SM CLR 24/M01 A2985 RMK A01
10:35
V
23 °C 10 mi - 210° 210° 4 kt METAR KAUN 181735Z AUTO 21004KT 10SM CLR 23/M02 A2985 RMK A01
10:15
V
23 °C 10 mi - 200° 200° 5 kt METAR KAUN 181715Z AUTO 20005KT 10SM CLR 23/01 A2984 RMK A01
09:55
V
23 °C 10 mi - 180° 180° 5 kt METAR KAUN 181655Z AUTO 18005KT 10SM CLR 23/M02 A2984 RMK A01
09:35
V
23 °C 10 mi - Var Var 5 kt METAR KAUN 181635Z AUTO VRB05KT 10SM CLR 23/M04 A2984 RMK A01
09:15
V
22 °C 10 mi - 160° 160° 5 kt METAR KAUN 181615Z AUTO 16005KT 10SM CLR 22/M04 A2984 RMK A01
08:55
V
22 °C 10 mi - 120° 120° 6 kt METAR KAUN 181555Z AUTO 12006KT 10SM CLR 22/M04 A2983 RMK A01
08:35
V
21 °C 10 mi - 110° 110° 3 kt METAR KAUN 181535Z AUTO 11003KT 10SM CLR 21/M03 A2983 RMK A01
08:15
V
20 °C 10 mi - 090° 090° 5 kt METAR KAUN 181515Z AUTO 09005KT 10SM CLR 20/M03 A2982 RMK A01
07:55
V
20 °C 10 mi - 100° 100° 5 kt METAR KAUN 181455Z AUTO 10005KT 10SM CLR 20/M04 A2982 RMK A01
07:35
V
19 °C 10 mi - 100° 100° 5 kt METAR KAUN 181435Z AUTO 10005KT 10SM CLR 19/M04 A2981 RMK A01
07:15
V
17 °C 10 mi - 360° 360° 0 kt METAR KAUN 181415Z AUTO 00000KT 10SM CLR 17/M03 A2981 RMK A01
06:55
V
15 °C 10 mi - 360° 360° 0 kt METAR KAUN 181355Z AUTO 00000KT 10SM CLR 15/M04 A2981 RMK A01
06:35
V
14 °C 10 mi - 360° 360° 0 kt METAR KAUN 181335Z AUTO 00000KT 10SM CLR 14/M04 A2981 RMK A01
06:15
V
11 °C 10 mi - 360° 360° 0 kt METAR KAUN 181315Z AUTO 00000KT 10SM CLR 11/M04 A2980 RMK A01
05:55
V
9 °C 10 mi - 360° 360° 0 kt METAR KAUN 181255Z AUTO 00000KT 10SM CLR 09/M06 A2979 RMK A01
05:35
V
12 °C 10 mi - 360° 360° 0 kt METAR KAUN 181235Z AUTO 00000KT 10SM CLR 12/M07 A2979 RMK A01
05:15
V
16 °C 10 mi - 360° 360° 0 kt METAR KAUN 181215Z AUTO 00000KT 10SM CLR 16/M08 A2979 RMK A01
04:55
V
18 °C 10 mi - 070° 070° 6 kt METAR KAUN 181155Z AUTO 07006KT 10SM CLR 18/M09 A2978 RMK A01
04:35
V
18 °C 10 mi - 070° 070° 6 kt METAR KAUN 181135Z AUTO 07006KT 10SM CLR 18/M09 A2978 RMK A01
04:15
V
17 °C 10 mi - 060° 060° 6 kt METAR KAUN 181115Z AUTO 06006KT 10SM CLR 17/M09 A2978 RMK A01
03:55
V
18 °C 10 mi - 070° 070° 7 kt METAR KAUN 181055Z AUTO 07007KT 10SM CLR 18/M09 A2978 RMK A01
03:35
V
18 °C 10 mi - 070° 070° 7 kt METAR KAUN 181035Z AUTO 07007KT 10SM CLR 18/M09 A2978 RMK A01
03:15
V
17 °C 10 mi - 060° 060° 6 kt METAR KAUN 181015Z AUTO 06006KT 10SM CLR 17/M08 A2978 RMK A01
02:55
V
18 °C 10 mi - 060° 060° 5 kt METAR KAUN 180955Z AUTO 06005KT 10SM CLR 18/M08 A2978 RMK A01
02:35
V
17 °C 10 mi - 060° 060° 8 kt METAR KAUN 180935Z AUTO 06008KT 10SM CLR 17/M08 A2978 RMK A01
02:15
V
17 °C 10 mi - 060° 060° 5 kt METAR KAUN 180915Z AUTO 06005KT 10SM CLR 17/M07 A2979 RMK A01
01:55
V
18 °C 10 mi - 060° 060° 6 kt METAR KAUN 180855Z AUTO 06006KT 10SM CLR 18/M08 A2980 RMK A01
01:35
V
18 °C 10 mi - 060° 060° 5 kt METAR KAUN 180835Z AUTO 06005KT 10SM CLR 18/M07 A2980 RMK A01
01:15
V
18 °C 10 mi - 060° 060° 7 kt METAR KAUN 180815Z AUTO 06007KT 10SM CLR 18/M06 A2980 RMK A01
00:55
V
17 °C 10 mi - 050° 050° 6 kt METAR KAUN 180755Z AUTO 05006KT 10SM CLR 17/M05 A2980 RMK A01
00:35
V
16 °C 10 mi - 070° 070° 5 kt METAR KAUN 180735Z AUTO 07005KT 10SM CLR 16/M03 A2981 RMK A01
00:15
V
17 °C 10 mi - Var Var 5 kt METAR KAUN 180715Z AUTO VRB05KT 10SM CLR 17/M04 A2982 RMK A01

17 juin 2024

Temps Code Temps Temp. Vue Base cloud Vent METAR/SPECI
23:55
V
14 °C 10 mi - 360° 360° 0 kt METAR KAUN 180655Z AUTO 00000KT 10SM CLR 14/M01 A2982 RMK A01
23:15
V
14 °C 10 mi - 360° 360° 0 kt METAR KAUN 180615Z AUTO 00000KT 10SM CLR 14/00 A2983 RMK A01
22:55
V
16 °C 10 mi - 360° 360° 0 kt METAR KAUN 180555Z AUTO 00000KT 10SM CLR 16/M00 A2983 RMK A01
Signaler les modifications